createdAt,value
2022-10-23T00:00:19.360Z,97030.56
2022-10-23T00:02:54.817Z,97026.13
2022-10-23T00:05:28.577Z,97024.75
2022-10-23T00:08:00.262Z,97020.97
2022-10-23T00:10:30.176Z,97023.38
2022-10-23T00:12:58.494Z,97024.78
2022-10-23T00:15:27.501Z,97019.00
2022-10-23T00:17:57.919Z,97012.66
2022-10-23T00:20:28.887Z,97018.53
2022-10-23T00:22:57.570Z,97016.97
2022-10-23T00:25:26.184Z,97018.41
2022-10-23T00:27:55.538Z,97013.69
2022-10-23T00:30:23.897Z,97005.97
2022-10-23T00:32:52.771Z,97008.53
2022-10-23T00:35:21.157Z,97008.72
2022-10-23T00:37:52.299Z,97011.19
2022-10-23T00:40:21.050Z,97014.25
2022-10-23T00:42:49.908Z,97013.56
2022-10-23T00:45:23.258Z,97002.91
2022-10-23T00:47:52.148Z,97009.16
2022-10-23T00:50:24.931Z,97009.91
2022-10-23T00:52:57.347Z,97019.16
2022-10-23T00:55:28.397Z,97011.56
2022-10-23T00:57:57.475Z,97016.34
2022-10-23T01:00:28.531Z,97006.63
2022-10-23T01:02:58.191Z,97004.38
2022-10-23T01:05:34.146Z,96997.44
2022-10-23T01:08:12.232Z,96997.00
2022-10-23T01:10:46.371Z,97001.06
2022-10-23T01:13:23.835Z,97003.88
2022-10-23T01:16:02.239Z,97004.69
2022-10-23T01:18:41.272Z,96990.38
2022-10-23T01:21:18.145Z,96999.94
2022-10-23T01:24:04.968Z,97001.47
2022-10-23T01:26:55.784Z,96987.44
2022-10-23T01:29:32.810Z,96994.53
2022-10-23T01:32:07.304Z,96988.88
2022-10-23T01:34:48.252Z,96984.16
2022-10-23T01:37:23.400Z,96982.31
2022-10-23T01:39:56.133Z,96978.09
2022-10-23T01:42:31.396Z,96980.50
2022-10-23T01:45:07.180Z,96981.75
2022-10-23T01:47:37.869Z,96985.91
2022-10-23T01:50:09.684Z,96981.94
2022-10-23T01:52:39.009Z,96980.97
2022-10-23T01:55:11.713Z,96972.72
2022-10-23T01:57:43.818Z,96979.81
2022-10-23T02:00:18.521Z,96968.91
2022-10-23T02:02:49.855Z,96965.56
2022-10-23T02:05:22.913Z,96957.31
2022-10-23T02:07:52.392Z,96948.13
2022-10-23T02:10:23.007Z,96958.75
2022-10-23T02:13:00.456Z,96947.41
2022-10-23T02:15:34.280Z,96944.16
2022-10-23T02:18:10.941Z,96943.84
2022-10-23T02:23:24.392Z,96940.41
2022-10-23T02:25:58.483Z,96937.00
2022-10-23T02:28:35.741Z,96941.25
2022-10-23T02:31:06.698Z,96940.31
2022-10-23T02:33:36.777Z,96943.88
2022-10-23T02:36:05.946Z,96948.44
2022-10-23T02:38:40.510Z,96949.75
2022-10-23T02:41:26.740Z,96952.28
2022-10-23T02:44:15.766Z,96941.75
2022-10-23T02:46:54.185Z,96948.25
2022-10-23T02:49:31.661Z,96935.34
2022-10-23T02:52:10.601Z,96929.19
2022-10-23T02:54:57.155Z,96932.31
2022-10-23T02:57:33.661Z,96940.00
2022-10-23T03:00:09.327Z,96931.03
2022-10-23T03:02:43.803Z,96930.31
2022-10-23T03:05:18.234Z,96934.28
2022-10-23T03:07:48.559Z,96920.25
2022-10-23T03:10:19.307Z,96919.19
2022-10-23T03:12:48.878Z,96923.06
2022-10-23T03:15:19.547Z,96909.28
2022-10-23T03:17:49.424Z,96916.09
2022-10-23T03:20:18.099Z,96912.25
2022-10-23T03:22:47.619Z,96914.38
2022-10-23T03:25:16.195Z,96909.44
2022-10-23T03:27:44.694Z,96896.66
2022-10-23T03:30:16.337Z,96899.47
2022-10-23T03:32:44.747Z,96905.84
2022-10-23T03:35:14.906Z,96903.56
2022-10-23T03:37:43.494Z,96903.16
2022-10-23T03:40:12.885Z,96902.50
2022-10-23T03:42:41.338Z,96899.09
2022-10-23T03:45:10.966Z,96899.19
2022-10-23T03:47:41.444Z,96909.06
2022-10-23T03:50:11.898Z,96910.00
2022-10-23T03:52:42.677Z,96905.78
2022-10-23T03:55:11.691Z,96885.56
2022-10-23T03:57:40.237Z,96884.97
2022-10-23T04:00:13.135Z,96881.25
2022-10-23T04:02:43.757Z,96880.88
2022-10-23T04:05:12.714Z,96893.22
2022-10-23T04:07:43.802Z,96886.53
2022-10-23T04:10:12.097Z,96867.91
2022-10-23T04:12:40.604Z,96888.34
2022-10-23T04:15:10.642Z,96890.84
2022-10-23T04:17:39.083Z,96867.78
2022-10-23T04:20:07.879Z,96872.56
2022-10-23T04:22:36.243Z,96882.84
2022-10-23T04:25:06.681Z,96872.06
2022-10-23T04:27:35.267Z,96878.81
2022-10-23T04:30:04.374Z,96882.91
2022-10-23T04:32:33.252Z,96886.59
2022-10-23T04:35:05.043Z,96886.31
2022-10-23T04:37:35.538Z,96879.00
2022-10-23T04:40:05.802Z,96884.03
2022-10-23T04:42:34.313Z,96885.97
2022-10-23T04:45:08.535Z,96893.38
2022-10-23T04:47:37.118Z,96886.47
2022-10-23T04:50:07.103Z,96886.03
2022-10-23T04:52:35.666Z,96882.22
2022-10-23T04:55:09.974Z,96875.69
2022-10-23T04:57:38.795Z,96879.25
2022-10-23T05:00:10.964Z,96881.00
2022-10-23T05:02:39.305Z,96873.28
2022-10-23T05:05:09.288Z,96878.44
2022-10-23T05:07:38.388Z,96874.47
2022-10-23T05:10:11.112Z,96864.78
2022-10-23T05:12:39.462Z,96871.06
2022-10-23T05:15:09.185Z,96868.00
2022-10-23T05:17:40.813Z,96874.09
2022-10-23T05:20:15.253Z,96867.31
2022-10-23T05:22:45.899Z,96863.56
2022-10-23T05:25:16.605Z,96848.78
2022-10-23T05:27:45.591Z,96860.03
2022-10-23T05:30:19.430Z,96850.28
2022-10-23T05:32:47.849Z,96852.09
2022-10-23T05:35:23.277Z,96863.66
2022-10-23T05:37:54.589Z,96881.25
2022-10-23T05:40:24.803Z,96884.22
2022-10-23T05:42:54.370Z,96892.03
2022-10-23T05:45:23.169Z,96878.59
2022-10-23T05:47:53.868Z,96882.66
2022-10-23T05:50:23.295Z,96881.81
2022-10-23T05:52:51.859Z,96876.03
2022-10-23T05:55:20.240Z,96859.75
2022-10-23T05:57:50.527Z,96876.97
2022-10-23T06:00:25.428Z,96899.59
2022-10-23T06:02:57.175Z,96886.63
2022-10-23T06:05:25.526Z,96881.16
2022-10-23T06:07:54.359Z,96886.84
2022-10-23T06:10:23.731Z,96886.84
2022-10-23T06:12:54.284Z,96892.88
2022-10-23T06:15:23.417Z,96885.38
2022-10-23T06:17:51.925Z,96884.06
2022-10-23T06:20:21.582Z,96893.88
2022-10-23T06:22:53.095Z,96880.84
2022-10-23T06:25:22.231Z,96882.72
2022-10-23T06:27:54.453Z,96880.44
2022-10-23T06:30:23.684Z,96865.28
2022-10-23T06:32:52.487Z,96880.50
2022-10-23T06:35:20.883Z,96880.88
2022-10-23T06:37:49.265Z,96864.47
2022-10-23T06:40:20.124Z,96884.50
2022-10-23T06:42:48.472Z,96892.94
2022-10-23T06:45:18.736Z,96873.94
2022-10-23T06:47:47.125Z,96869.50
2022-10-23T06:50:18.145Z,96903.81
2022-10-23T06:52:48.119Z,96901.03
2022-10-23T06:55:18.532Z,96887.44
2022-10-23T06:57:47.626Z,96893.34
2022-10-23T07:00:17.917Z,96895.13
2022-10-23T07:02:47.700Z,96910.66
2022-10-23T07:05:16.612Z,96902.38
2022-10-23T07:07:45.415Z,96906.31
2022-10-23T07:12:42.681Z,96899.06
2022-10-23T07:15:12.297Z,96908.84
2022-10-23T07:17:42.009Z,96909.59
2022-10-23T07:20:11.206Z,96904.41
2022-10-23T07:22:39.507Z,96900.59
2022-10-23T07:25:09.051Z,96905.66
2022-10-23T07:27:38.800Z,96902.56
2022-10-23T07:30:08.800Z,96901.31
2022-10-23T07:32:37.170Z,96897.66
2022-10-23T07:35:10.105Z,96909.53
2022-10-23T07:37:39.759Z,96907.94
2022-10-23T07:40:10.210Z,96910.41
2022-10-23T07:42:38.890Z,96905.84
2022-10-23T07:45:08.767Z,96905.72
2022-10-23T07:47:37.080Z,96905.53
2022-10-23T07:50:07.700Z,96901.91
2022-10-23T07:52:36.892Z,96911.09
2022-10-23T07:55:07.124Z,96924.63
2022-10-23T07:57:35.591Z,96916.25
2022-10-23T08:00:04.756Z,96908.50
2022-10-23T08:02:34.197Z,96909.91
2022-10-23T08:05:02.738Z,96909.44
2022-10-23T08:07:32.652Z,96912.94
2022-10-23T08:10:00.967Z,96921.94
2022-10-23T08:12:29.247Z,96908.09
2022-10-23T08:14:57.521Z,96894.16
2022-10-23T08:17:28.185Z,96896.47
2022-10-23T08:19:56.871Z,96890.53
2022-10-23T08:22:25.208Z,96899.94
2022-10-23T08:24:54.833Z,96895.81
2022-10-23T08:27:23.252Z,96891.63
2022-10-23T08:29:52.412Z,96893.34
2022-10-23T08:32:20.666Z,96885.47
2022-10-23T08:34:49.240Z,96892.50
2022-10-23T08:37:17.967Z,96898.00
2022-10-23T08:39:48.084Z,96902.34
2022-10-23T08:42:25.429Z,96908.75
2022-10-23T08:45:02.771Z,96892.25
2022-10-23T08:47:40.070Z,96891.78
2022-10-23T08:50:16.134Z,96886.25
2022-10-23T08:52:52.727Z,96881.06
2022-10-23T08:55:30.061Z,96875.38
2022-10-23T08:58:06.724Z,96878.13
2022-10-23T09:00:36.004Z,96870.63
2022-10-23T09:03:06.753Z,96866.50
2022-10-23T09:05:49.324Z,96873.38
2022-10-23T09:08:30.214Z,96861.63
2022-10-23T09:11:05.718Z,96864.72
2022-10-23T09:14:06.792Z,96854.56
2022-10-23T09:16:56.995Z,96859.19
2022-10-23T09:19:28.052Z,96871.41
2022-10-23T09:21:57.736Z,96858.47
2022-10-23T09:24:31.606Z,96852.25
2022-10-23T09:27:01.087Z,96855.09
2022-10-23T09:29:35.829Z,96851.75
2022-10-23T09:32:07.456Z,96849.94
2022-10-23T09:34:36.808Z,96843.03
2022-10-23T09:37:21.831Z,96848.03
2022-10-23T09:39:50.361Z,96849.09
2022-10-23T09:42:25.026Z,96858.78
2022-10-23T09:44:57.524Z,96837.91
2022-10-23T09:47:30.194Z,96833.34
2022-10-23T09:49:58.841Z,96844.16
2022-10-23T09:52:39.316Z,96834.78
2022-10-23T09:55:23.130Z,96838.75
2022-10-23T09:57:53.448Z,96861.72
2022-10-23T10:00:26.155Z,96825.34
2022-10-23T10:03:01.513Z,96816.44
2022-10-23T10:05:32.617Z,96839.91
2022-10-23T10:08:16.034Z,96824.31
2022-10-23T10:10:54.666Z,96808.47
2022-10-23T10:13:46.402Z,96821.38
2022-10-23T10:16:29.658Z,96798.81
2022-10-23T10:19:08.858Z,96813.97
2022-10-23T10:21:46.703Z,96818.03
2022-10-23T10:24:25.989Z,96805.84
2022-10-23T10:27:04.479Z,96810.34
2022-10-23T10:29:51.397Z,96818.59
2022-10-23T10:32:37.620Z,96806.56
2022-10-23T10:35:24.699Z,96803.03
2022-10-23T10:38:14.662Z,96797.34
2022-10-23T10:40:49.218Z,96814.69
2022-10-23T10:43:33.994Z,96788.94
2022-10-23T10:46:12.366Z,96793.03
2022-10-23T10:48:50.806Z,96801.91
2022-10-23T10:51:30.732Z,96777.72
2022-10-23T10:54:22.818Z,96805.03
2022-10-23T10:56:51.284Z,96793.16
2022-10-23T10:59:26.038Z,96763.31
2022-10-23T11:02:01.593Z,96792.63
2022-10-23T11:04:37.586Z,96780.44
2022-10-23T11:07:12.292Z,96750.66
2022-10-23T11:09:43.350Z,96773.34
2022-10-23T11:12:19.648Z,96764.41
2022-10-23T11:14:48.234Z,96775.88
2022-10-23T11:17:24.270Z,96779.25
2022-10-23T11:20:04.200Z,96772.72
2022-10-23T11:22:38.799Z,96762.72
2022-10-23T11:25:33.232Z,96760.53
2022-10-23T11:28:27.986Z,96772.47
2022-10-23T11:31:12.086Z,96745.69
2022-10-23T11:34:13.910Z,96759.53
2022-10-23T11:36:51.268Z,96747.78
2022-10-23T11:39:24.953Z,96755.31
2022-10-23T11:41:56.552Z,96737.97
2022-10-23T11:44:30.572Z,96743.69
2022-10-23T11:47:04.773Z,96739.56
2022-10-23T11:49:33.407Z,96739.97
2022-10-23T11:52:06.443Z,96740.06
2022-10-23T11:54:34.788Z,96730.97
2022-10-23T11:57:14.827Z,96724.16
2022-10-23T11:59:54.292Z,96735.63
2022-10-23T12:02:33.832Z,96734.03
2022-10-23T12:05:07.055Z,96722.75
2022-10-23T12:07:39.775Z,96725.88
2022-10-23T12:10:28.736Z,96722.31
2022-10-23T12:13:00.136Z,96707.88
2022-10-23T12:15:29.425Z,96710.22
2022-10-23T12:18:15.954Z,96712.19
2022-10-23T12:20:52.825Z,96699.09
2022-10-23T12:23:51.639Z,96702.22
2022-10-23T12:26:41.632Z,96684.69
2022-10-23T12:29:23.594Z,96685.22
2022-10-23T12:32:02.295Z,96687.25
2022-10-23T12:34:44.989Z,96681.25
2022-10-23T12:37:59.165Z,96664.19
2022-10-23T12:40:30.264Z,96687.56
2022-10-23T12:43:00.927Z,96684.44
2022-10-23T12:45:33.431Z,96677.41
2022-10-23T12:48:01.698Z,96667.88
2022-10-23T12:50:33.108Z,96671.38
2022-10-23T12:53:08.780Z,96667.22
2022-10-23T12:55:52.641Z,96681.44
2022-10-23T12:58:23.650Z,96664.19
2022-10-23T13:00:54.089Z,96678.31
2022-10-23T13:03:24.999Z,96659.88
2022-10-23T13:05:55.386Z,96650.84
2022-10-23T13:08:25.585Z,96680.44
2022-10-23T13:10:55.374Z,96658.78
2022-10-23T13:13:24.990Z,96674.91
2022-10-23T13:15:53.408Z,96673.56
2022-10-23T13:18:21.737Z,96654.03
2022-10-23T13:23:36.186Z,96677.88
2022-10-23T13:26:07.868Z,96673.72
2022-10-23T13:28:44.670Z,96670.47
2022-10-23T13:31:30.898Z,96666.91
2022-10-23T13:34:25.298Z,96650.97
2022-10-23T13:37:01.735Z,96647.97
2022-10-23T13:39:33.225Z,96655.53
2022-10-23T13:42:14.732Z,96632.19
2022-10-23T13:44:43.665Z,96632.84
2022-10-23T13:47:14.485Z,96633.78
2022-10-23T13:49:42.793Z,96631.34
2022-10-23T13:52:15.059Z,96614.47
2022-10-23T13:54:43.674Z,96621.50
2022-10-23T13:57:16.622Z,96624.00
2022-10-23T13:59:44.878Z,96607.06
2022-10-23T14:02:21.934Z,96590.28
2022-10-23T14:04:51.601Z,96616.56
2022-10-23T14:07:20.119Z,96637.66
2022-10-23T14:09:50.561Z,96648.81
2022-10-23T14:12:20.451Z,96659.16
2022-10-23T14:14:52.781Z,96697.53
2022-10-23T14:17:22.130Z,96611.88
2022-10-23T14:19:51.096Z,96636.41
2022-10-23T14:22:19.418Z,96686.84
2022-10-23T14:24:47.692Z,96602.13
2022-10-23T14:27:23.515Z,96606.16
2022-10-23T14:29:53.945Z,96702.44
2022-10-23T14:32:22.240Z,96625.47
2022-10-23T14:34:54.331Z,96621.34
2022-10-23T14:37:23.119Z,96696.13
2022-10-23T14:39:51.641Z,96620.78
2022-10-23T14:42:20.158Z,96548.50
2022-10-23T14:44:51.107Z,96573.66
2022-10-23T14:47:20.366Z,96665.16
2022-10-23T14:49:53.361Z,96617.44
2022-10-23T14:52:22.005Z,96557.56
2022-10-23T14:54:52.283Z,96578.66
2022-10-23T14:57:24.392Z,96621.19
2022-10-23T14:59:54.222Z,96611.44
2022-10-23T15:02:24.683Z,96611.19
2022-10-23T15:04:53.621Z,96606.47
2022-10-23T15:07:21.914Z,96629.31
2022-10-23T15:09:51.937Z,96636.88
2022-10-23T15:12:24.519Z,96603.03
2022-10-23T15:14:54.362Z,96609.91
2022-10-23T15:17:29.372Z,96607.34
2022-10-23T15:19:57.724Z,96583.16
2022-10-23T15:22:26.260Z,96596.28
2022-10-23T15:24:56.431Z,96603.34
2022-10-23T15:27:24.837Z,96596.50
2022-10-23T15:29:55.338Z,96642.06
2022-10-23T15:32:23.721Z,96672.66
2022-10-23T15:34:53.799Z,96625.38
2022-10-23T15:37:22.182Z,96632.00
2022-10-23T15:39:50.535Z,96629.06
2022-10-23T15:42:20.064Z,96622.03
2022-10-23T15:44:48.736Z,96654.44
2022-10-23T15:47:21.149Z,96700.66
2022-10-23T15:49:49.607Z,96732.72
2022-10-23T15:52:18.062Z,96743.13
2022-10-23T15:54:46.560Z,96718.22
2022-10-23T15:57:15.022Z,96725.81
2022-10-23T15:59:43.383Z,96691.13
2022-10-23T16:02:13.539Z,96669.75
2022-10-23T16:04:43.495Z,96659.91
2022-10-23T16:07:13.876Z,96675.88
2022-10-23T16:09:42.406Z,96644.19
2022-10-23T16:12:11.172Z,96642.47
2022-10-23T16:14:40.841Z,96630.13
2022-10-23T16:19:46.042Z,96614.00
2022-10-23T16:22:16.137Z,96580.06
2022-10-23T16:24:44.623Z,96578.88
2022-10-23T16:27:13.400Z,96625.75
2022-10-23T16:29:41.940Z,96624.00
2022-10-23T16:32:11.328Z,96568.38
2022-10-23T16:34:39.893Z,96604.47
2022-10-23T16:37:09.566Z,96644.56
2022-10-23T16:39:39.170Z,96580.19
2022-10-23T16:42:07.781Z,96594.50
2022-10-23T16:44:38.466Z,96611.19
2022-10-23T16:47:07.375Z,96614.38
2022-10-23T16:49:36.186Z,96561.81
2022-10-23T16:52:04.670Z,96572.28
2022-10-23T16:54:34.415Z,96565.41
2022-10-23T16:57:05.057Z,96568.88
2022-10-23T16:59:34.356Z,96590.06
2022-10-23T17:02:02.950Z,96599.69
2022-10-23T17:04:32.287Z,96625.63
2022-10-23T17:07:00.699Z,96573.78
2022-10-23T17:09:31.591Z,96567.28
2022-10-23T17:12:01.595Z,96597.53
2022-10-23T17:14:30.072Z,96616.94
2022-10-23T17:17:02.029Z,96606.44
2022-10-23T17:19:44.588Z,96592.16
2022-10-23T17:22:16.187Z,96586.34
2022-10-23T17:24:50.103Z,96599.28
2022-10-23T17:27:23.441Z,96612.41
2022-10-23T17:29:52.028Z,96618.91
2022-10-23T17:34:53.124Z,96625.38
2022-10-23T17:37:24.439Z,96638.63
2022-10-23T17:39:57.126Z,96666.16
2022-10-23T17:42:29.231Z,96687.94
2022-10-23T17:44:59.124Z,96694.38
2022-10-23T17:47:27.590Z,96687.75
2022-10-23T17:49:56.048Z,96690.06
2022-10-23T17:52:24.539Z,96692.19
2022-10-23T17:54:54.854Z,96691.53
2022-10-23T18:00:00.566Z,96695.81
2022-10-23T18:02:29.384Z,96688.47
2022-10-23T18:04:59.175Z,96696.59
2022-10-23T18:07:29.802Z,96669.50
2022-10-23T18:09:59.254Z,96654.94
2022-10-23T18:12:30.423Z,96678.63
2022-10-23T18:15:02.745Z,96679.66
2022-10-23T18:17:31.476Z,96702.72
2022-10-23T18:20:02.261Z,96711.94
2022-10-23T18:22:33.778Z,96691.94
2022-10-23T18:25:03.897Z,96690.94
2022-10-23T18:27:32.503Z,96682.53
2022-10-23T18:30:03.753Z,96702.53
2022-10-23T18:32:32.134Z,96707.63
2022-10-23T18:35:00.775Z,96712.63
2022-10-23T18:37:38.988Z,96715.53
2022-10-23T18:40:13.258Z,96717.72
2022-10-23T18:42:41.921Z,96700.63
2022-10-23T18:45:14.420Z,96714.63
2022-10-23T18:47:43.327Z,96722.97
2022-10-23T18:50:14.655Z,96723.31
2022-10-23T18:52:43.281Z,96728.44
2022-10-23T18:55:13.603Z,96759.44
2022-10-23T18:57:43.068Z,96755.41
2022-10-23T19:00:15.554Z,96746.09
2022-10-23T19:02:47.721Z,96817.78
2022-10-23T19:05:21.364Z,96818.13
2022-10-23T19:07:51.379Z,96796.88
2022-10-23T19:10:23.072Z,96770.19
2022-10-23T19:12:52.655Z,96780.28
2022-10-23T19:15:28.377Z,96766.66
2022-10-23T19:18:00.168Z,96784.00
2022-10-23T19:20:30.046Z,96757.22
2022-10-23T19:23:00.812Z,96786.13
2022-10-23T19:25:34.563Z,96791.19
2022-10-23T19:28:05.477Z,96782.09
2022-10-23T19:30:36.546Z,96783.53
2022-10-23T19:33:06.227Z,96790.38
2022-10-23T19:35:45.734Z,96794.88
2022-10-23T19:38:14.253Z,96799.22
2022-10-23T19:40:56.601Z,96823.63
2022-10-23T19:43:25.053Z,96828.19
2022-10-23T19:45:54.823Z,96834.41
2022-10-23T19:48:23.630Z,96831.88
2022-10-23T19:50:52.283Z,96841.19
2022-10-23T19:53:21.540Z,96838.34
2022-10-23T19:55:50.090Z,96852.06
2022-10-23T19:58:18.903Z,96841.53
2022-10-23T20:00:48.772Z,96855.41
2022-10-23T20:03:19.502Z,96851.69
2022-10-23T20:05:49.891Z,96835.44
2022-10-23T20:08:20.431Z,96826.59
2022-10-23T20:10:50.062Z,96829.78
2022-10-23T20:13:20.623Z,96832.09
2022-10-23T20:15:49.426Z,96829.13
2022-10-23T20:18:19.245Z,96832.13
2022-10-23T20:20:47.920Z,96832.63
2022-10-23T20:23:16.389Z,96818.25
2022-10-23T20:25:45.109Z,96837.81
2022-10-23T20:28:15.174Z,96837.44
2022-10-23T20:30:45.559Z,96861.19
2022-10-23T20:33:14.514Z,96867.09
2022-10-23T20:35:45.084Z,96864.81
2022-10-23T20:38:13.631Z,96864.66
2022-10-23T20:40:42.170Z,96862.88
2022-10-23T20:43:11.779Z,96861.63
2022-10-23T20:45:41.064Z,96890.81
2022-10-23T20:48:09.415Z,96895.69
2022-10-23T20:50:37.964Z,96898.56
2022-10-23T20:53:07.672Z,96895.00
2022-10-23T20:55:36.229Z,96901.56
2022-10-23T20:58:04.833Z,96910.78
2022-10-23T21:00:35.263Z,96901.13
2022-10-23T21:03:05.361Z,96905.59
2022-10-23T21:05:35.321Z,96921.50
2022-10-23T21:08:07.519Z,96923.69
2022-10-23T21:10:36.529Z,96934.84
2022-10-23T21:13:05.983Z,96941.16
2022-10-23T21:15:36.307Z,96944.78
2022-10-23T21:18:27.577Z,96941.44
2022-10-23T21:21:10.536Z,96945.78
2022-10-23T21:23:56.143Z,96947.81
2022-10-23T21:26:25.504Z,96955.47
2022-10-23T21:29:16.957Z,96977.69
2022-10-23T21:31:45.135Z,96990.91
2022-10-23T21:34:13.805Z,96977.97
2022-10-23T21:37:07.517Z,96975.41
2022-10-23T21:39:35.810Z,96944.59
2022-10-23T21:42:06.406Z,96925.91
2022-10-23T21:44:37.940Z,96923.25
2022-10-23T21:47:07.188Z,96914.78
2022-10-23T21:49:37.300Z,96891.97
2022-10-23T21:52:07.842Z,96882.94
2022-10-23T21:54:39.142Z,96869.47
2022-10-23T21:57:15.785Z,96873.84
2022-10-23T21:59:44.231Z,96887.50
2022-10-23T22:02:12.896Z,96890.28
2022-10-23T22:04:41.452Z,96770.13
2022-10-23T22:07:11.174Z,96759.88
2022-10-23T22:09:41.544Z,96760.41
2022-10-23T22:12:12.432Z,96782.00
2022-10-23T22:14:40.858Z,96809.00
2022-10-23T22:17:09.194Z,96792.72
2022-10-23T22:19:39.742Z,96777.38
2022-10-23T22:22:09.174Z,96779.00
2022-10-23T22:24:40.195Z,96773.44
2022-10-23T22:27:11.593Z,96780.44
2022-10-23T22:29:40.972Z,96785.44
2022-10-23T22:32:09.344Z,96801.84
2022-10-23T22:34:53.732Z,96802.81
2022-10-23T22:37:22.343Z,96800.56
2022-10-23T22:39:57.900Z,96798.94
2022-10-23T22:42:27.638Z,96796.13
2022-10-23T22:44:57.307Z,96815.09
2022-10-23T22:47:25.980Z,96813.63
2022-10-23T22:50:03.634Z,96813.81
2022-10-23T22:52:32.073Z,96822.00
2022-10-23T22:55:01.830Z,96832.13
2022-10-23T22:57:30.410Z,96835.81
2022-10-23T23:00:02.229Z,96821.06
2022-10-23T23:02:32.504Z,96822.81
2022-10-23T23:05:00.793Z,96836.47
2022-10-23T23:07:29.966Z,96846.03
2022-10-23T23:09:58.491Z,96849.72
2022-10-23T23:12:28.171Z,96838.16
2022-10-23T23:14:58.913Z,96836.41
2022-10-23T23:17:27.370Z,96842.97
2022-10-23T23:19:55.666Z,96858.06
2022-10-23T23:22:23.988Z,96860.91
2022-10-23T23:24:52.413Z,96845.81
2022-10-23T23:27:20.725Z,96847.66
2022-10-23T23:29:51.674Z,96840.84
2022-10-23T23:32:20.713Z,96848.69
2022-10-23T23:34:49.353Z,96834.91
2022-10-23T23:37:17.891Z,96828.47
2022-10-23T23:39:46.230Z,96818.31
2022-10-23T23:42:14.742Z,96807.94
2022-10-23T23:44:50.415Z,96808.31
2022-10-23T23:47:33.295Z,96804.13
2022-10-23T23:50:02.128Z,96803.56
2022-10-23T23:52:34.004Z,96800.41
2022-10-23T23:55:02.727Z,96792.47
2022-10-23T23:57:32.406Z,96790.06
